Ek-star — LAMT5 — position and weather

sailwx.info

Track history (hours):
 
Tides and Currents Weather Stations Pressure Air Temp Water Temp Dewpoint Dewpoint Depression Visibility Wind Speed Wind Dir Waves Ship Positions

Ek-star

Last reported at 2014-Oct-21 17:10 UTC. Time now 2014-Oct-21 20:03 UTC.
Position N 60°01' E 026°46'.

Length 135 m; draft 8.5 m.

Type: Ship (hazmat cat A). MMSI: 257433000.

Date/timePositionNaut miles runAvg speedWind from/ knotsBaromVisibWave heightAir tempDewpointWater temp
2014-Oct-21 17:10N 60°01' E 026°46'10410.8
2014-Oct-21 07:33N 59°54' E 030°13'2 1.9
2014-Oct-21 06:32N 59°55' E 030°15'0 0.0
2014-Oct-21 05:31N 59°55' E 030°15'0 0.0
2014-Oct-21 04:31N 59°55' E 030°15'0 0.0
2014-Oct-21 03:25N 59°55' E 030°15'0 0.0
2014-Oct-21 02:31N 59°55' E 030°15'0 0.0
2014-Oct-21 01:28N 59°55' E 030°15'0 0.0
2014-Oct-21 00:31N 59°55' E 030°15'0 0.0
2014-Oct-20 23:25N 59°55' E 030°15'0 0.0
2014-Oct-20 22:31N 59°55' E 030°15'0 0.0
2014-Oct-20 21:31N 59°55' E 030°15'0 0.0
2014-Oct-20 19:31N 59°55' E 030°15'0 0.0
2014-Oct-20 18:25N 59°55' E 030°15'0 0.0
2014-Oct-20 16:19N 59°55' E 030°15'0 0.0
2014-Oct-20 14:31N 59°55' E 030°15'0 0.0
2014-Oct-20 13:28N 59°55' E 030°15'0 0.0
2014-Oct-20 12:28N 59°55' E 030°15'0 0.0
2014-Oct-20 11:31N 59°55' E 030°15'0 0.0
2014-Oct-20 10:31N 59°55' E 030°15'0 0.0
2014-Oct-20 09:31N 59°55' E 030°15'0 0.0
2014-Oct-20 08:31N 59°55' E 030°15'0 0.0
2014-Oct-20 07:28N 59°55' E 030°15'0 0.0
2014-Oct-20 06:31N 59°55' E 030°15'0 0.0
2014-Oct-20 05:28N 59°55' E 030°15'0 0.0
2014-Oct-20 04:25N 59°55' E 030°15'0 0.0
2014-Oct-20 03:31N 59°55' E 030°15'0 0.0
2014-Oct-20 00:28N 59°55' E 030°15'0 0.0
2014-Oct-19 16:22N 59°55' E 030°15'0 0.0
2014-Oct-19 06:30N 59°55' E 030°15'96 3.8
2014-Oct-18 05:06N 59°58' E 027°03'713.5
2014-Oct-18 04:33N 59°59' E 026°48'1513.1
2014-Oct-18 03:26N 59°57' E 026°19'5913.5
2014-Oct-17 23:03N 59°43' E 024°24'2013.3
2014-Oct-17 21:32N 59°37' E 023°46'37212.9
2014-Oct-16 16:33N 55°32' E 015°03'1913.0
2014-Oct-16 15:04N 55°21' E 014°35'1213.2
2014-Oct-16 14:09N 55°12' E 014°21'4612.6
2014-Oct-16 10:33N 55°13' E 013°02'1312.9
2014-Oct-16 09:33N 55°18' E 012°41'1211.8
2014-Oct-16 08:33N 55°29' E 012°43'10 9.9
2014-Oct-16 07:33N 55°37' E 012°53'1111.0
2014-Oct-16 06:33N 55°48' E 012°48'1212.4
2014-Oct-16 05:33N 55°59' E 012°41'1010.4
2014-Oct-16 04:33N 56°08' E 012°30'1110.9
2014-Oct-16 03:33N 56°14' E 012°13'1111.4
2014-Oct-16 02:34N 56°22' E 012°00'  
2014-Oct-13 01:32N 54°41' E 010°49'8 7.8
2014-Oct-13 00:33N 54°34' E 010°44'1110.8
2014-Oct-12 23:33N 54°31' E 010°26'1111.2
2014-Oct-12 22:33N 54°24' E 010°12'3 3.0
2014-Oct-12 21:33N 54°22' E 010°08'4 4.3
2014-Oct-12 20:33N 54°21' E 010°00'4 4.3
2014-Oct-12 19:33N 54°21' E 009°53'4 3.9
2014-Oct-12 18:33N 54°21' E 009°46'7 6.7
2014-Oct-12 17:31N 54°16' E 009°38'20 6.3
2014-Oct-12 14:24N 54°00' E 009°18'5 5.5
2014-Oct-12 13:33N 53°57' E 009°13'1 0.8
2014-Oct-12 12:33N 53°56' E 009°13'3 3.2
2014-Oct-12 11:33N 53°54' E 009°09'7 7.3
2014-Oct-12 10:33N 53°51' E 008°57'10 9.9
2014-Oct-12 09:33N 53°54' E 008°41'1111.1
2014-Oct-12 08:33N 53°59' E 008°24'1312.6
2014-Oct-12 07:33N 53°59' E 008°03'7612.3
2014-Oct-12 01:22N 53°40' E 005°57'1012.9
2014-Oct-12 00:33N 53°37' E 005°41'1313.3
2014-Oct-11 23:33N 53°33' E 005°19'1414.0
2014-Oct-11 22:34N 53°28' E 004°58'4013.4
2014-Oct-11 19:33N 52°56' E 004°18'1414.3
2014-Oct-11 18:33N 52°43' E 004°07'1414.4
2014-Oct-11 17:33N 52°30' E 003°55'  
Track history (hours):
 
Tides and Currents Weather Stations Pressure Air Temp Water Temp Dewpoint Dewpoint Depression Visibility Wind Speed Wind Dir Waves Ship Positions

Ek-star

Last reported at 2014-Oct-21 17:10 UTC. Time now 2014-Oct-21 20:03 UTC.
Position N 60°01' E 026°46'.

Length 135 m; draft 8.5 m.

Type: Ship (hazmat cat A). MMSI: 257433000.

Date/timePositionNaut miles runAvg speedWind from/ knotsBaromVisibWave heightAir tempDewpointWater temp
2014-Oct-21 17:10N 60°01' E 026°46'10410.8
2014-Oct-21 07:33N 59°54' E 030°13'2 1.9
2014-Oct-21 06:32N 59°55' E 030°15'0 0.0
2014-Oct-21 05:31N 59°55' E 030°15'0 0.0
2014-Oct-21 04:31N 59°55' E 030°15'0 0.0
2014-Oct-21 03:25N 59°55' E 030°15'0 0.0
2014-Oct-21 02:31N 59°55' E 030°15'0 0.0
2014-Oct-21 01:28N 59°55' E 030°15'0 0.0
2014-Oct-21 00:31N 59°55' E 030°15'0 0.0
2014-Oct-20 23:25N 59°55' E 030°15'0 0.0
2014-Oct-20 22:31N 59°55' E 030°15'0 0.0
2014-Oct-20 21:31N 59°55' E 030°15'0 0.0
2014-Oct-20 19:31N 59°55' E 030°15'0 0.0
2014-Oct-20 18:25N 59°55' E 030°15'0 0.0
2014-Oct-20 16:19N 59°55' E 030°15'0 0.0
2014-Oct-20 14:31N 59°55' E 030°15'0 0.0
2014-Oct-20 13:28N 59°55' E 030°15'0 0.0
2014-Oct-20 12:28N 59°55' E 030°15'0 0.0
2014-Oct-20 11:31N 59°55' E 030°15'0 0.0
2014-Oct-20 10:31N 59°55' E 030°15'0 0.0
2014-Oct-20 09:31N 59°55' E 030°15'0 0.0
2014-Oct-20 08:31N 59°55' E 030°15'0 0.0
2014-Oct-20 07:28N 59°55' E 030°15'0 0.0
2014-Oct-20 06:31N 59°55' E 030°15'0 0.0
2014-Oct-20 05:28N 59°55' E 030°15'0 0.0
2014-Oct-20 04:25N 59°55' E 030°15'0 0.0
2014-Oct-20 03:31N 59°55' E 030°15'0 0.0
2014-Oct-20 00:28N 59°55' E 030°15'0 0.0
2014-Oct-19 16:22N 59°55' E 030°15'0 0.0
2014-Oct-19 06:30N 59°55' E 030°15'96 3.8
2014-Oct-18 05:06N 59°58' E 027°03'713.5
2014-Oct-18 04:33N 59°59' E 026°48'1513.1
2014-Oct-18 03:26N 59°57' E 026°19'5913.5
2014-Oct-17 23:03N 59°43' E 024°24'2013.3
2014-Oct-17 21:32N 59°37' E 023°46'37212.9
2014-Oct-16 16:33N 55°32' E 015°03'1913.0
2014-Oct-16 15:04N 55°21' E 014°35'1213.2
2014-Oct-16 14:09N 55°12' E 014°21'4612.6
2014-Oct-16 10:33N 55°13' E 013°02'1312.9
2014-Oct-16 09:33N 55°18' E 012°41'1211.8
2014-Oct-16 08:33N 55°29' E 012°43'10 9.9
2014-Oct-16 07:33N 55°37' E 012°53'1111.0
2014-Oct-16 06:33N 55°48' E 012°48'1212.4
2014-Oct-16 05:33N 55°59' E 012°41'1010.4
2014-Oct-16 04:33N 56°08' E 012°30'1110.9
2014-Oct-16 03:33N 56°14' E 012°13'1111.4
2014-Oct-16 02:34N 56°22' E 012°00'  
2014-Oct-13 01:32N 54°41' E 010°49'8 7.8
2014-Oct-13 00:33N 54°34' E 010°44'1110.8
2014-Oct-12 23:33N 54°31' E 010°26'1111.2
2014-Oct-12 22:33N 54°24' E 010°12'3 3.0
2014-Oct-12 21:33N 54°22' E 010°08'4 4.3
2014-Oct-12 20:33N 54°21' E 010°00'4 4.3
2014-Oct-12 19:33N 54°21' E 009°53'4 3.9
2014-Oct-12 18:33N 54°21' E 009°46'7 6.7
2014-Oct-12 17:31N 54°16' E 009°38'20 6.3
2014-Oct-12 14:24N 54°00' E 009°18'5 5.5
2014-Oct-12 13:33N 53°57' E 009°13'1 0.8
2014-Oct-12 12:33N 53°56' E 009°13'3 3.2
2014-Oct-12 11:33N 53°54' E 009°09'7 7.3
2014-Oct-12 10:33N 53°51' E 008°57'10 9.9
2014-Oct-12 09:33N 53°54' E 008°41'1111.1
2014-Oct-12 08:33N 53°59' E 008°24'1312.6
2014-Oct-12 07:33N 53°59' E 008°03'7612.3
2014-Oct-12 01:22N 53°40' E 005°57'1012.9
2014-Oct-12 00:33N 53°37' E 005°41'1313.3
2014-Oct-11 23:33N 53°33' E 005°19'1414.0
2014-Oct-11 22:34N 53°28' E 004°58'4013.4
2014-Oct-11 19:33N 52°56' E 004°18'1414.3
2014-Oct-11 18:33N 52°43' E 004°07'1414.4
2014-Oct-11 17:33N 52°30' E 003°55'  

Dump ship's entire track history